Tiempo atmosférico en la estación meteorológica de Algarrobo, Málaga (80 m.)



Fecha
DESCASC
Temp. máxima en grados centígrados (hora)
DESCASC
Temp. mínima en grados centígrados (hora)
DESCASC
Temp. media en grados centígrados
DESCASC
Racha de viento máxima en m/sg (hora)
DESCASC
Velocidad máxima media en intervalos de 10 minutos(hora)
DESCASC
Precipitaciones diarias en mm
DESCASC
Precipitaciones de 00:00 a 06:00 en mm
DESCASC
Precipitaciones de 06:00 a 12:00 en mm
DESCASC
Precipitaciones de 12:00 a 18:00 en mm
DESCASC
Precipitaciones de 18:00 a 24:00 en mm
DESCASC
23-05-2018 23.9 (14:40) 13.9 (06:20) 18.9 5.28 (13:10) 2.78 (13:00) 0 0 0 0 0
22-05-2018 23.5 (15:10) 13.2 (06:50) 18.3 5.28 (11:20) 3.89 (12:40) 0 0 0 0 0
21-05-2018 22.6 (15:10) 14.5 (07:10) 18.6 6.11 (19:40) 3.61 (16:10) 0 0 0 0 0
20-05-2018 21.9 (15:00) 13.6 (00:00) 17.8 6.11 (16:00) 3.61 (14:00) 0 0 0 0 0
19-05-2018 21.3 (15:40) 14.1 (00:00) 17.7 6.67 (11:50) 4.44 (12:40) 0 0 0 0 0
18-05-2018 21.1 (14:10) 13.3 (00:00) 17.2 6.11 (11:40) 3.89 (13:50) 0 0 0 0 0
17-05-2018 22.1 (17:00) 14 (00:00) 18.1 7.22 (13:50) 4.44 (14:20) 0 0 0 0 0
16-05-2018 22.1 (16:20) 12.6 (00:00) 17.4 9.72 (10:40) 5 (11:20) 0 0 0 0 0
15-05-2018 22.9 (14:00) 11.7 (00:00) 17.3 9.44 (13:40) 5 (14:20) 0 0 0 0 0
14-05-2018 21.9 (14:40) 10.4 (00:00) 16.1 5 (16:10) 3.33 (13:00) 0 0 0 0 0
13-05-2018 22.4 (14:20) 12.1 (00:00) 17.3 12.22 (00:10) 7.5 (00:10) 0 0 0 0 0
12-05-2018 28 (15:30) 13.2 (00:00) 20.6 12.78 (16:50) 8.06 (18:30) 0 0 0 0 0
11-05-2018 21.7 (14:00) 14.2 (07:20) 18 6.11 (14:30) 3.89 (14:20) 0 0 0 0 0
10-05-2018 21.8 (19:00) 15.9 (00:00) 18.8 8.61 (15:30) 5.28 (16:40) 0 0 0 0 0
09-05-2018 28.3 (19:00) 14.9 (00:00) 21.6 10.83 (20:50) 6.94 (18:40) 0 0 0 0 0
08-05-2018 23.6 (17:30) 13.4 (00:00) 18.5 11.67 (23:00) 8.61 (23:00) 0 0 0 0 0
07-05-2018 22 (16:40) 14.5 (00:00) 18.3 6.67 (15:10) 4.44 (15:10) 0.2 0 0 0.2 0
06-05-2018 20.6 (13:40) 12.5 (00:00) 16.6 8.33 (14:30) 5 (14:20) 0 0 0 0 0
05-05-2018 20.9 (18:00) 11.6 (00:00) 16.3 5.83 (14:10) 3.89 (16:00) 0 0 0 0 0
04-05-2018 21.7 (17:20) 13.4 (00:00) 17.6 10.28 (13:30) 5.83 (13:30) 0 0 0 0 0
03-05-2018 20.9 (13:40) 12 (00:00) 16.4 8.33 (00:30) 5 (00:30) 0 0 0 0 0
02-05-2018 19.3 (16:20) 7.5 (00:00) 13.4 7.5 (16:50) 4.72 (16:50) -- 0 0 -- 0
01-05-2018 18.7 (13:00) 9.4 (23:59) 14.1 15 (15:40) 8.89 (15:40) 3.4 0 0 3.4 0
30-04-2018 20.9 (17:00) 10.6 (00:00) 15.8 11.94 (15:20) 7.5 (13:50) 0 0 0 0 0
29-04-2018 19.2 (13:20) 11.7 (00:00) 15.5 13.33 (17:10) 8.33 (17:10) 0 0 0 0 0
28-04-2018 20.5 (17:50) 11.9 (00:00) 16.2 12.78 (19:40) 7.22 (18:40) 0 0 0 0 0

Gráficas

Temp. máximas Temp. mínimas Temp. medias Precipitaciones Rachas de viento máximas Velocidades máximas media en intervalos de 10 minutos

Datos horarios

Fecha y hora oficial Temperatura (ºC) Velocidad del viento (km/h) Dirección del viento Racha (km/h) Dirección de racha Precipitación (mm) Presión (hPa) Tendencia (hPa) Humedad (%)
2018-05-27 23:00:00 -- -- -- -- -- -- -- -- --
2018-05-27 22:00:00 -- -- -- -- -- -- -- -- --
2018-05-27 21:00:00 -- -- -- -- -- -- -- -- --
2018-05-27 20:00:00 -- -- -- -- -- -- -- -- --
2018-05-27 19:00:00 -- -- -- -- -- -- -- -- --
2018-05-27 18:00:00 -- -- -- -- -- -- -- -- --
2018-05-27 17:00:00 -- -- -- -- -- -- -- -- --
2018-05-27 16:00:00 -- -- -- -- -- -- -- -- --
2018-05-27 15:00:00 -- -- -- -- -- -- -- -- --
2018-05-27 14:00:00 -- -- -- -- -- -- -- -- --
2018-05-27 13:00:00 -- -- -- -- -- -- -- -- --
2018-05-27 12:00:00 -- -- -- -- -- -- -- -- --
2018-05-27 11:00:00 -- -- -- -- -- -- -- -- --
2018-05-27 10:00:00 -- -- -- -- -- -- -- -- --
2018-05-27 09:00:00 -- -- -- -- -- -- -- -- --
2018-05-27 08:00:00 18.2 0 Calma 12 Nordeste 0 -- -- 88
2018-05-27 07:00:00 18.2 4 Sudeste 19 Sur 0 -- -- 87
2018-05-27 06:00:00 18.7 2 Sudeste 17 Este 0 -- -- 72
2018-05-27 05:00:00 18.2 5 Sudeste 14 Sudeste 0 -- -- 83
2018-05-27 04:00:00 17.9 2 Este 7 Este 0 -- -- 80
2018-05-27 03:00:00 17.7 0 Calma 9 Norte 0 -- -- 79
2018-05-27 02:00:00 17.2 0 Calma 10 Este 0 -- -- 82
2018-05-27 01:00:00 17.8 7 Sudeste 12 Sudeste 0 -- -- 80
2018-05-27 00:00:00 17.6 4 Este 6 Este 0 -- -- 75
2018-05-26 23:00:00 18 4 Sudeste 6 Sudeste 0 -- -- 71
2018-05-26 22:00:00 18.8 3 Este 11 Sudoeste 0 -- -- 68
2018-05-26 21:00:00 20.4 6 Sudoeste 17 Sudoeste 0 -- -- 62
2018-05-26 20:00:00 21.3 9 Sudoeste 18 Sudoeste 0 -- -- 66
2018-05-26 19:00:00 22.8 6 Sudoeste 16 Oeste 0 -- -- 65
2018-05-26 18:00:00 22.3 8 Sudoeste 17 Sudoeste 0 -- -- 68
2018-05-26 17:00:00 23 11 Sudoeste 21 Sudoeste 0 -- -- 65
2018-05-26 16:00:00 22.7 11 Sudoeste 22 Sudoeste 0 -- -- 65
2018-05-26 15:00:00 23.7 9 Sudoeste 19 Sudoeste 0 -- -- 50
2018-05-26 14:00:00 24.5 9 Sudoeste 15 Sudoeste 0 -- -- 44
2018-05-26 13:00:00 22.5 10 Sudoeste 21 Sudoeste 0 -- -- 63
2018-05-26 12:00:00 23.3 15 Sudoeste 21 Oeste 0 -- -- 54
2018-05-26 11:00:00 23.5 5 Noroeste 12 Oeste 0 -- -- 44
2018-05-26 10:00:00 21.4 8 Norte 13 Nordeste 0 -- -- 55
2018-05-26 09:00:00 18.7 0 Calma 9 Norte 0 -- -- 58
2018-05-26 08:00:00 14 2 Norte 8 Norte 0 -- -- 80
2018-05-26 07:00:00 13.5 3 Nordeste 7 Norte 0 -- -- 81
2018-05-26 06:00:00 13.7 2 Nordeste 6 Norte 0 -- -- 80
2018-05-26 05:00:00 14.2 3 Norte 11 Norte 0 -- -- 76
2018-05-26 04:00:00 14.4 2 Nordeste 7 Nordeste 0 -- -- 80
2018-05-26 03:00:00 15 3 Norte 8 Norte 0 -- -- 78
2018-05-26 02:00:00 15.4 3 Nordeste 5 Norte 0 -- -- 79
2018-05-26 01:00:00 15.8 0 Calma 4 Nordeste 0 -- -- 76
2018-05-26 00:00:00 16.5 3 Norte 5 Norte 0 -- -- 75
2018-05-25 23:00:00 17.5 2 Norte 7 Este 0 -- -- 70
2018-05-25 22:00:00 18.9 3 Nordeste 10 Sudoeste 0 -- -- 65
2018-05-25 21:00:00 21.6 8 Sudoeste 12 Sudoeste 0 -- -- 55
2018-05-25 20:00:00 22.4 4 Sudoeste 15 Sur 0 -- -- 53
2018-05-25 19:00:00 22 12 Sur 24 Sur 0 -- -- 58
2018-05-25 18:00:00 22.8 14 Sudoeste 27 Oeste 0 -- -- 57
2018-05-25 17:00:00 23.2 16 Sudoeste 27 Sudoeste 0 -- -- 53
2018-05-25 16:00:00 22 21 Sudoeste 31 Sudoeste 0 -- -- 60
2018-05-25 15:00:00 22 14 Sur 28 Sudoeste 0 -- -- 65
2018-05-25 14:00:00 21.1 17 Sudoeste 28 Oeste 0 -- -- 66
2018-05-25 13:00:00 20.8 13 Oeste 31 Sudoeste 0 -- -- 69
2018-05-25 12:00:00 21.5 13 Sudoeste 32 Sudoeste 0 -- -- 62
2018-05-25 11:00:00 21.4 12 Sudoeste 21 Oeste 0 -- -- 60
2018-05-25 10:00:00 20.8 9 Sudoeste 13 Sudoeste 0 -- -- 64
2018-05-25 09:00:00 19.7 0 Calma 5 Sur 0 -- -- 67
2018-05-25 08:00:00 17.1 0 Calma 14 Sudoeste 0 -- -- 75
2018-05-25 07:00:00 17.8 4 Oeste 23 Sudoeste 0 -- -- 74
2018-05-25 06:00:00 18.8 14 Sudoeste 21 Oeste 0 -- -- 72
2018-05-25 05:00:00 20.4 9 Noroeste 24 Norte 0 -- -- 58
2018-05-25 04:00:00 19.1 10 Noroeste 17 Sudoeste 0 -- -- 73
2018-05-25 03:00:00 19.2 7 Sudoeste 15 Sudoeste 0 -- -- 75
2018-05-25 02:00:00 19.5 5 Noroeste 18 Oeste 0 -- -- 75
2018-05-25 01:00:00 19.8 4 Oeste 9 Sudoeste 0 -- -- 72
2018-05-25 00:00:00 19.5 2 Sur 12 Norte 0 -- -- 79
2018-05-24 23:00:00 19.2 5 Norte 12 Sudoeste 0 -- -- 76
2018-05-24 22:00:00 19.3 4 Sudoeste 13 Oeste 0 -- -- 76
2018-05-24 21:00:00 21.1 9 Sudoeste 17 Sudoeste 0 -- -- 65
2018-05-24 20:00:00 23.2 6 Sudoeste 17 Sudoeste 0 -- -- 57
2018-05-24 19:00:00 23.4 10 Sudoeste 24 Sudoeste 0 -- -- 56
2018-05-24 18:00:00 23.5 11 Sudoeste 27 Sudoeste 0 -- -- 55
2018-05-24 17:00:00 23 18 Sudoeste 26 Oeste 0 -- -- 58
2018-05-24 16:00:00 25.3 9 Sudoeste 19 Sur 0 -- -- 49
2018-05-24 15:00:00 25 10 Sudoeste 22 Sudoeste 0 -- -- 52
2018-05-24 14:00:00 23.8 13 Sudoeste 22 Oeste 0 -- -- 54
2018-05-24 13:00:00 23.7 12 Sudoeste 21 Sudoeste 0 -- -- 54
2018-05-24 12:00:00 23.3 10 Oeste 23 Sudoeste 0 -- -- 54
2018-05-24 11:00:00 22.8 9 Oeste 21 Oeste 0 -- -- 53
2018-05-24 10:00:00 22.3 4 Oeste 9 Sur 0 -- -- 52
2018-05-24 09:00:00 19.9 5 Sudoeste 9 Sudoeste 0 -- -- 61
2018-05-24 08:00:00 17.4 5 Norte 8 Nordeste 0 -- -- 65
2018-05-24 07:00:00 16.6 3 Sudeste 6 Norte 0 -- -- 67
2018-05-24 06:00:00 17 5 Nordeste 12 Norte 0 -- -- 65
2018-05-24 05:00:00 16.8 6 Norte 12 Norte 0 -- -- 67
2018-05-24 04:00:00 17 5 Norte 11 Norte 0 -- -- 65
2018-05-24 03:00:00 17.4 6 Norte 10 Noroeste 0 -- -- 65
2018-05-24 02:00:00 18.1 6 Norte 9 Norte 0 -- -- 64
2018-05-24 01:00:00 17.7 4 Norte 6 Nordeste 0 -- -- 65
2018-05-24 00:00:00 17.4 3 Norte 5 Nordeste 0 -- -- 67
2018-05-23 23:00:00 18 3 Nordeste 5 Nordeste 0 -- -- 68
2018-05-23 22:00:00 18.9 2 Norte 4 Norte 0 -- -- 64
2018-05-23 21:00:00 20.7 0 Calma 5 Sur 0 -- -- 59
2018-05-23 20:00:00 22.2 5 Sur 7 Sudoeste 0 -- -- 53
2018-05-23 19:00:00 22.7 5 Sudoeste 12 Sudoeste 0 -- -- 55
2018-05-23 18:00:00 23.2 5 Sudoeste 11 Sudoeste 0 -- -- 51
2018-05-23 17:00:00 22.9 7 Sudoeste 13 Sur 0 -- -- 54
2018-05-23 16:00:00 22.5 7 Sudoeste 15 Sudoeste 0 -- -- 55
2018-05-23 15:00:00 23.2 7 Sudoeste 13 Sudoeste 0 -- -- 56
2018-05-23 14:00:00 22.1 8 Sudoeste 19 Sur 0 -- -- 59
2018-05-23 13:00:00 20.8 10 Sudeste 18 Sudeste 0 -- -- 64
2018-05-23 12:00:00 19.9 6 Nordeste 12 Nordeste 0 -- -- 75
2018-05-23 11:00:00 19 4 Nordeste 9 Sur 0 -- -- 75
2018-05-23 10:00:00 20.6 4 Sur 7 Sudoeste 0 -- -- 61
2018-05-23 09:00:00 18.9 4 Sur 6 Sudoeste 0 -- -- 68
2018-05-23 08:00:00 16.5 4 Norte 9 Norte 0 -- -- 76
2018-05-23 07:00:00 14.5 5 Norte 10 Norte 0 -- -- 82
2018-05-23 06:00:00 14 3 Norte 6 Norte 0 -- -- 85
2018-05-23 05:00:00 14.2 0 Calma 4 Norte 0 -- -- 84
2018-05-23 04:00:00 14.5 0 Calma 9 Norte 0 -- -- 82
2018-05-23 03:00:00 15.1 4 Norte 8 Norte 0 -- -- 81
2018-05-23 02:00:00 15.3 4 Norte 8 Norte 0 -- -- 82
2018-05-23 01:00:00 16.2 4 Nordeste 6 Norte 0 -- -- 83
2018-05-23 00:00:00 17.1 0 Calma 5 Sudeste 0 -- -- 83
2018-05-22 23:00:00 18.3 3 Sudeste 6 Sudeste 0 -- -- 79
2018-05-22 22:00:00 19.6 0 Calma 6 Noroeste 0 -- -- 67
2018-05-22 21:00:00 22.1 2 Norte 6 Norte 0 -- -- 55
2018-05-22 20:00:00 22.6 3 Noroeste 13 Sudoeste 0 -- -- 57
2018-05-22 19:00:00 22.3 10 Sudoeste 14 Sudoeste 0 -- -- 60
2018-05-22 18:00:00 22.8 8 Sudoeste 16 Sudoeste 0 -- -- 59
2018-05-22 17:00:00 22.9 8 Sudoeste 15 Sur 0 -- -- 54
2018-05-22 16:00:00 23 9 Sudoeste 18 Sur 0 -- -- 59
2018-05-22 15:00:00 23.4 11 Sur 17 Sudoeste 0 -- -- 52
2018-05-22 14:00:00 22 8 Sudoeste 19 Sudoeste 0 -- -- 63
2018-05-22 13:00:00 22.4 11 Sur 19 Sudoeste 0 -- -- 64
2018-05-22 12:00:00 21.5 9 Sur 19 Sudoeste 0 -- -- 65
2018-05-22 11:00:00 20.7 10 Sur 16 Sur 0 -- -- 69
2018-05-22 10:00:00 20.2 7 Sudoeste 12 Sudoeste 0 -- -- 64
2018-05-22 09:00:00 18.4 3 Sudoeste 8 Norte 0 -- -- 67
2018-05-22 08:00:00 13.8 4 Norte 6 Norte 0 -- -- 86
2018-05-22 07:00:00 13.2 4 Nordeste 7 Nordeste 0 -- -- 85
2018-05-22 06:00:00 13.6 0 Calma 7 Nordeste 0 -- -- 83
2018-05-22 05:00:00 13.9 3 Norte 6 Nordeste 0 -- -- 85
2018-05-22 04:00:00 14.3 3 Nordeste 9 Norte 0 -- -- 86
2018-05-22 03:00:00 14.5 2 Noroeste 8 Nordeste 0 -- -- 86
2018-05-22 02:00:00 15.2 2 Nordeste 6 Norte 0 -- -- 87
2018-05-22 01:00:00 15.6 4 Nordeste 8 Norte 0 -- -- 81
2018-05-22 00:00:00 16 3 Norte 7 Sudoeste 0 -- -- 81
2018-05-21 23:00:00 16.7 6 Norte 10 Norte 0 -- -- 79
2018-05-21 22:00:00 17.8 3 Este 15 Sudoeste 0 -- -- 82
2018-05-21 21:00:00 19.3 8 Sudoeste 17 Sudoeste 0 -- -- 72
2018-05-21 20:00:00 20.3 9 Sudoeste 22 Sudoeste 0 -- -- 67
2018-05-21 19:00:00 20.4 12 Oeste 20 Sudoeste 0 -- -- 71
2018-05-21 18:00:00 20.8 12 Sudoeste 18 Sudoeste 0 -- -- 71
2018-05-21 17:00:00 20.5 7 Sur 17 Sudoeste 0 -- -- 73
2018-05-21 16:00:00 22.3 12 Sudoeste 18 Sudoeste 0 -- -- 64
2018-05-21 15:00:00 22.5 11 Sur 17 Sudoeste 0 -- -- 56
2018-05-21 14:00:00 20.9 11 Sudoeste 19 Sudoeste 0 -- -- 72
2018-05-21 13:00:00 21.1 11 Sur 20 Sudoeste 0 -- -- 73
2018-05-21 12:00:00 20.2 9 Sur 17 Sudoeste 0 -- -- 75
2018-05-21 11:00:00 20.7 8 Sur 15 Sur 0 -- -- 67
2018-05-21 10:00:00 19.6 6 Sur 13 Sur 0 -- -- 69
2018-05-21 09:00:00 18.5 5 Sudeste 9 Sudeste 0 -- -- 75
2018-05-21 08:00:00 15.4 3 Nordeste 10 Noroeste 0 -- -- 85
2018-05-21 07:00:00 14.6 2 Norte -- -- 0 -- -- 86
2018-05-21 06:00:00 15.6 0 Calma 4 Norte 0 -- -- 83
2018-05-21 05:00:00 16.1 0 Calma 5 Norte 0 -- -- 82
2018-05-21 04:00:00 16.2 4 Norte 5 Norte 0 -- -- 83
2018-05-21 03:00:00 16.4 2 Norte 5 Nordeste 0 -- -- 81
2018-05-21 02:00:00 16.5 3 Norte 6 Nordeste 0 -- -- 79
2018-05-21 01:00:00 16.7 2 Nordeste 5 Nordeste 0 -- -- 82
2018-05-21 00:00:00 16.1 0 Calma 4 Norte 0 -- -- 83
2018-05-20 23:00:00 16.1 2 Este 5 Este 0 -- -- 80
2018-05-20 22:00:00 17.5 3 Este 7 Sur 0 -- -- 77
2018-05-20 21:00:00 18.8 3 Sudoeste 9 Sudoeste 0 -- -- 71
2018-05-20 20:00:00 19.4 5 Sudoeste 9 Sudoeste 0 -- -- 73
2018-05-20 19:00:00 20 7 Sudoeste 14 Sudoeste 0 -- -- 72
2018-05-20 18:00:00 21 7 Sudoeste 16 Sudoeste 0 -- -- 69
2018-05-20 17:00:00 20.7 9 Sur 21 Sudeste 0 -- -- 71
2018-05-20 16:00:00 21.4 11 Sur 22 Sur 0 -- -- 69
2018-05-20 15:00:00 21.9 13 Sur 21 Sudoeste 0 -- -- 68
2018-05-20 14:00:00 21.4 13 Sudoeste 20 Sudoeste 0 -- -- 70
2018-05-20 13:00:00 20.9 10 Sudoeste 19 Sudoeste 0 -- -- 70
2018-05-20 12:00:00 20.9 11 Sur 19 Sudoeste 0 -- -- 71
2018-05-20 11:00:00 20.6 9 Sudoeste 16 Sur 0 -- -- 70
2018-05-20 10:00:00 18.7 3 Oeste 6 Oeste 0 -- -- 68
2018-05-20 09:00:00 17.5 3 Norte 5 Norte 0 -- -- 78
2018-05-20 08:00:00 14.8 4 Norte 8 Nordeste 0 -- -- 85
2018-05-20 07:00:00 14 4 Nordeste 10 Sudoeste 0 -- -- 84
2018-05-20 06:00:00 13.7 4 Nordeste 7 Norte 0 -- -- 85
2018-05-20 05:00:00 14.4 2 Norte 6 Norte 0 -- -- 83
2018-05-20 04:00:00 15.2 5 Norte 9 Norte 0 -- -- 81
2018-05-20 03:00:00 15.3 6 Norte 9 Norte 0 -- -- 82
2018-05-20 02:00:00 15.7 4 Norte 9 Norte 0 -- -- 81
2018-05-20 01:00:00 16.6 3 Norte 6 Nordeste 0 -- -- 78
2018-05-20 00:00:00 16.9 5 Norte 8 Norte 0 -- -- 80
2018-05-19 23:00:00 17.2 3 Norte 5 Norte 0 -- -- 81
2018-05-19 22:00:00 18 0 Calma 7 Sur 0 -- -- 79
2018-05-19 21:00:00 18.5 0 Calma 5 Sudoeste 0 -- -- 76
2018-05-19 20:00:00 18.8 4 Sudoeste 9 Sur 0 -- -- 75
2018-05-19 19:00:00 19.2 6 Sudoeste 10 Sudoeste 0 -- -- 74
2018-05-19 18:00:00 19.6 6 Sudoeste 19 Sudoeste 0 -- -- 72
2018-05-19 17:00:00 20.9 9 Sudoeste 15 Sudoeste 0 -- -- 68
2018-05-19 16:00:00 20.3 9 Sudoeste 18 Sudoeste 0 -- -- 70
2018-05-19 15:00:00 20.2 10 Sur 20 Sur 0 -- -- 69
2018-05-19 14:00:00 20.9 12 Sur 21 Sur 0 -- -- 71
2018-05-19 13:00:00 20.5 13 Sur 23 Sur 0 -- -- 73
2018-05-19 12:00:00 20.4 13 Sur 24 Sur 0 -- -- 70
2018-05-19 11:00:00 19.9 14 Sur 20 Sur 0 -- -- 79
2018-05-19 10:00:00 19.3 8 Sur 12 Sur 0 -- -- 77
2018-05-19 09:00:00 17.9 4 Sur 6 Sudoeste 0 -- -- 78
2018-05-19 08:00:00 14.7 5 Norte 8 Norte 0 -- -- 87
2018-05-19 07:00:00 14.1 4 Norte 6 Norte 0 -- -- 90
2018-05-19 06:00:00 14.9 2 Nordeste 6 Nordeste 0 -- -- 88
2018-05-19 05:00:00 16 2 Nordeste 5 Sudeste 0 -- -- 85
2018-05-19 04:00:00 16.6 0 Calma 4 Norte 0 -- -- 84
2018-05-19 03:00:00 16.7 0 Calma 2 Norte 0 -- -- 84
2018-05-19 02:00:00 16.9 0 Calma 4 Nordeste 0 -- -- 83
2018-05-19 01:00:00 16.9 0 Calma 3 Sudeste 0 -- -- 84
2018-05-19 00:00:00 17.2 2 Este 4 Sudeste 0 -- -- 82
2018-05-18 23:00:00 16.9 2 Sudeste 3 Sudeste 0 -- -- 81
2018-05-18 22:00:00 17.5 2 Sudeste 5 Sur 0 -- -- 78
2018-05-18 21:00:00 18.5 5 Sur 12 Sur 0 -- -- 73
2018-05-18 20:00:00 20.2 7 Sur 19 Sur 0 -- -- 66
2018-05-18 19:00:00 21 12 Sur 17 Sudeste 0 -- -- 65
2018-05-18 18:00:00 20.9 11 Sur 19 Sur 0 -- -- 68
2018-05-18 17:00:00 21 10 Sur 16 Sur 0 -- -- 67
2018-05-18 16:00:00 19.2 11 Sur 17 Sur 0 -- -- 74
2018-05-18 15:00:00 19.6 12 Sur 21 Sur 0 -- -- 74
2018-05-18 14:00:00 21 12 Sur 22 Sur 0 -- -- 69
2018-05-18 13:00:00 20.4 12 Sur 19 Sur 0 -- -- 72
2018-05-18 12:00:00 19.8 11 Sur 22 Sur 0 -- -- 73
2018-05-18 11:00:00 19.5 11 Sur 18 Sur 0 -- -- 71
2018-05-18 10:00:00 18.8 8 Sudeste 13 Sudeste 0 -- -- 72
2018-05-18 09:00:00 17.4 5 Sur 9 Sur 0 -- -- 77
2018-05-18 08:00:00 14.2 5 Nordeste 11 Nordeste 0 -- -- 89
2018-05-18 07:00:00 13.4 4 Nordeste 7 Norte 0 -- -- 89
2018-05-18 06:00:00 13.5 3 Norte 4 Norte 0 -- -- 88
2018-05-18 05:00:00 14.2 0 Calma 3 Nordeste 0 -- -- 86
2018-05-18 04:00:00 15 2 Nordeste 5 Norte 0 -- -- 83
2018-05-18 03:00:00 16.2 0 Calma 6 Sudeste 0 -- -- 78
2018-05-18 02:00:00 17.5 5 Sudeste 12 Sudeste 0 -- -- 72
2018-05-18 01:00:00 17.8 8 Sudeste 14 Este 0 -- -- 69
2018-05-18 00:00:00 17.7 5 Sudeste 17 Sudeste 0 -- -- 75
2018-05-17 23:00:00 17.7 10 Sudeste 17 Sudeste 0 -- -- 77
2018-05-17 22:00:00 17.8 7 Sur 10 Sur 0 -- -- 76
2018-05-17 21:00:00 18.8 6 Sudoeste 13 Sudoeste 0 -- -- 70
2018-05-17 20:00:00 20.1 8 Sudoeste 15 Sudoeste 0 -- -- 63
2018-05-17 19:00:00 21 9 Sudoeste 17 Sudoeste 0 -- -- 59
2018-05-17 18:00:00 21.4 9 Sudoeste 20 Sudoeste 0 -- -- 59
2018-05-17 17:00:00 22.1 13 Sudoeste 20 Sudoeste 0 -- -- 61
2018-05-17 16:00:00 21.3 8 Sur 19 Sur 0 -- -- 61
2018-05-17 15:00:00 21.2 12 Sur 25 Sur 0 -- -- 63
2018-05-17 14:00:00 21.1 15 Sur 26 Sur 0 -- -- 65
2018-05-17 13:00:00 21.3 10 Sur 18 Sur 0 -- -- 61
2018-05-17 12:00:00 21.4 8 Sur 22 Sudoeste 0 -- -- 57
2018-05-17 11:00:00 20.4 10 Sudoeste 19 Sudoeste 0 -- -- 58
2018-05-17 10:00:00 19.8 7 Sudoeste 12 Sudoeste 0 -- -- 53
2018-05-17 09:00:00 18.2 3 Este 10 Norte 0 -- -- 57
2018-05-17 08:00:00 14.6 5 Norte 10 Norte 0 -- -- 68
2018-05-17 07:00:00 14.2 5 Norte 15 Norte 0 -- -- 69
2018-05-17 06:00:00 14.6 7 Noroeste 13 Norte 0 -- -- 68
2018-05-17 05:00:00 14.3 4 Nordeste 13 Norte 0 -- -- 70
2018-05-17 04:00:00 14.9 8 Norte 20 Noroeste 0 -- -- 67
2018-05-17 03:00:00 15.6 10 Noroeste 14 Noroeste 0 -- -- 66
2018-05-17 02:00:00 15.3 7 Norte 15 Norte 0 -- -- 68
2018-05-17 01:00:00 15.1 6 Norte 8 Nordeste 0 -- -- 70
2018-05-17 00:00:00 14.9 3 Norte 6 Norte 0 -- -- 70
2018-05-16 23:00:00 15.6 0 Calma 4 Nordeste 0 -- -- 68
2018-05-16 22:00:00 17.3 0 Calma 6 Noroeste 0 -- -- 62
2018-05-16 21:00:00 19.1 4 Sudoeste 12 Sudoeste 0 -- -- 56
2018-05-16 20:00:00 20.2 8 Sudoeste 15 Sudoeste 0 -- -- 58
2018-05-16 19:00:00 20.9 10 Sudoeste 18 Sudoeste 0 -- -- 58
2018-05-16 18:00:00 21.7 11 Sudoeste 21 Sudoeste 0 -- -- 54
2018-05-16 17:00:00 21.8 13 Sur 24 Sur 0 -- -- 56
2018-05-16 16:00:00 21.6 12 Sur 28 Sudeste 0 -- -- 54
2018-05-16 15:00:00 21.5 14 Sur 23 Sur 0 -- -- 52
2018-05-16 14:00:00 21.2 14 Sur 28 Sudeste 0 -- -- 54
2018-05-16 13:00:00 20.6 16 Sur 31 Sudeste 0 -- -- 51
2018-05-16 12:00:00 20.6 16 Sur 34 Sudeste 0 -- -- 47
2018-05-16 11:00:00 20.7 13 Sudeste 35 Sudeste 0 -- -- 46
2018-05-16 10:00:00 19.9 10 Sur 18 Sudeste 0 -- -- 49
2018-05-16 09:00:00 17.4 2 Este 7 Norte 0 -- -- 62
2018-05-16 08:00:00 13.7 3 Nordeste 8 Este 0 -- -- 77
2018-05-16 07:00:00 12.8 4 Nordeste 8 Norte 0 -- -- 84
2018-05-16 06:00:00 12.8 5 Norte 8 Norte 0 -- -- 76
2018-05-16 05:00:00 13.4 4 Norte 9 Norte 0 -- -- 73
2018-05-16 04:00:00 13.3 4 Norte 8 Norte 0 -- -- 74
2018-05-16 03:00:00 13.4 4 Norte 8 Norte 0 -- -- 74
2018-05-16 02:00:00 13.7 3 Norte 5 Nordeste 0 -- -- 80
2018-05-16 01:00:00 14 2 Norte 4 Nordeste 0 -- -- 79
2018-05-16 00:00:00 14.6 0 Calma 5 Norte 0 -- -- 70
2018-05-15 23:00:00 15.6 3 Norte 4 Nordeste 0 -- -- 67
2018-05-15 22:00:00 17 0 Calma 12 Sudeste 0 -- -- 55
2018-05-15 21:00:00 19.4 8 Sudeste 15 Sur 0 -- -- 48
2018-05-15 20:00:00 20.6 9 Sur 18 Sudeste 0 -- -- 43
2018-05-15 19:00:00 21.4 12 Sur 20 Sur 0 -- -- 47
2018-05-15 18:00:00 21.2 11 Sur 24 Sur 0 -- -- 50
2018-05-15 17:00:00 21.5 14 Sur 26 Sudeste 0 -- -- 55
2018-05-15 16:00:00 22.7 14 Sur 28 Sudeste 0 -- -- 41
2018-05-15 15:00:00 22.3 17 Sudeste 31 Sur 0 -- -- 35
2018-05-15 14:00:00 22.9 13 Sudeste 34 Sur 0 -- -- 37
2018-05-15 13:00:00 21.8 15 Sur 31 Sudeste 0 -- -- 43
2018-05-15 12:00:00 21.7 14 Sudeste 24 Sudeste 0 -- -- 35
2018-05-15 11:00:00 21.2 8 Sur 12 Sudoeste 0 -- -- 39
2018-05-15 10:00:00 19.9 6 Sudoeste 9 Sur 0 -- -- 50
2018-05-15 09:00:00 18.2 0 Calma 12 Norte 0 -- -- 51
2018-05-15 08:00:00 14.5 9 Norte 17 Norte 0 -- -- 48
2018-05-15 07:00:00 13.1 8 Norte 12 Norte 0 -- -- 52
2018-05-15 06:00:00 12 5 Norte 9 Norte 0 -- -- 56
2018-05-15 05:00:00 11.7 3 Nordeste 7 Norte 0 -- -- 58
2018-05-15 04:00:00 12.1 6 Norte 8 Norte 0 -- -- 55
2018-05-15 03:00:00 13.1 5 Norte 8 Norte 0 -- -- 51
2018-05-15 02:00:00 13.5 3 Nordeste 9 Norte 0 -- -- 55
2018-05-15 01:00:00 13.7 5 Norte 9 Norte 0 -- -- 60
2018-05-15 00:00:00 14 5 Norte 8 Norte 0 -- -- 61
2018-05-14 23:00:00 14.3 3 Nordeste 6 Norte 0 -- -- 70
2018-05-14 22:00:00 16.1 0 Calma 5 Sudoeste 0 -- -- 68
2018-05-14 21:00:00 18.9 2 Sudoeste 9 Sudoeste 0 -- -- 58
2018-05-14 20:00:00 20.3 6 Sudoeste 12 Sudoeste 0 -- -- 49
2018-05-14 19:00:00 21.2 8 Sudoeste 14 Sudoeste 0 -- -- 44
2018-05-14 18:00:00 21.6 8 Sur 16 Sur 0 -- -- 41
2018-05-14 17:00:00 21.4 11 Sur 18 Sudoeste 0 -- -- 44
2018-05-14 16:00:00 21.4 11 Sudoeste 17 Sur 0 -- -- 42
2018-05-14 15:00:00 21.7 10 Sur 17 Sudoeste 0 -- -- 37
2018-05-14 14:00:00 21.4 9 Sur 16 Sudoeste 0 -- -- 38
2018-05-14 13:00:00 21.1 12 Sur 16 Sur 0 -- -- 39
2018-05-14 12:00:00 20.6 9 Sur 14 Sudoeste 0 -- -- 44
2018-05-14 11:00:00 19.8 8 Sudoeste 14 Sudoeste 0 -- -- 46
2018-05-14 10:00:00 20.6 4 Sudoeste 7 Sudoeste 0 -- -- 34
2018-05-14 09:00:00 16.6 6 Norte 9 Norte 0 -- -- 51
2018-05-14 08:00:00 11.7 3 Norte 8 Norte 0 -- -- 63
2018-05-14 07:00:00 10.7 5 Norte 8 Norte 0 -- -- 63
2018-05-14 06:00:00 11 0 Calma 10 Norte 0 -- -- 62
2018-05-14 05:00:00 11.3 5 Norte 9 Norte 0 -- -- 64
2018-05-14 04:00:00 11.5 2 Nordeste 10 Norte 0 -- -- 58
2018-05-14 03:00:00 11.8 5 Norte 9 Norte 0 -- -- 58
2018-05-14 02:00:00 12.1 4 Norte 6 Norte 0 -- -- 59
2018-05-14 01:00:00 12.9 3 Norte 9 Norte 0 -- -- 60
2018-05-11 20:00:00 -- -- -- -- -- -- -- -- --
2018-05-11 19:00:00 -- -- -- -- -- -- -- -- --
2018-05-11 18:00:00 -- -- -- -- -- -- -- -- --
2018-05-11 17:00:00 -- -- -- -- -- -- -- -- --
2018-05-11 16:00:00 20.8 9 Sudoeste 17 Sur 0 -- -- 73
2018-05-11 15:00:00 20.8 11 Sur 22 Sudoeste 0 -- -- 75
2018-05-11 14:00:00 21.7 10 Sur 21 Sudeste 0 -- -- 65
2018-05-11 13:00:00 21.1 12 Sudeste 22 Sudeste 0 -- -- 66
2018-05-11 12:00:00 21 12 Sudeste 21 Sudeste 0 -- -- 70
2018-05-11 11:00:00 20.5 11 Sudeste 18 Sudeste 0 -- -- 70
2018-05-11 10:00:00 20.1 9 Sur 14 Sur 0 -- -- 74
2018-05-11 09:00:00 17.4 4 Norte 12 Nordeste 0 -- -- 90
2018-05-11 08:00:00 14.6 3 Norte 6 Nordeste 0 -- -- 94
2018-05-11 07:00:00 14.4 3 Nordeste 7 Nordeste 0 -- -- 93
2018-05-11 06:00:00 14.5 0 Calma 6 Sudeste 0 -- -- 90
2018-05-11 05:00:00 15.6 2 Sudeste 7 Sudeste 0 -- -- 87
2018-05-11 04:00:00 16 3 Sudeste 9 Sudeste 0 -- -- 87
2018-05-11 03:00:00 15.9 4 Sudeste 9 Sudeste 0 -- -- 88
2018-05-11 02:00:00 14.9 2 Sudeste 5 Sudeste 0 -- -- 89
2018-05-11 01:00:00 15.4 0 Calma 4 Sudeste 0 -- -- 88
2018-05-11 00:00:00 15.9 2 Este 4 Sudeste 0 -- -- 84
2018-05-10 23:00:00 16.6 0 Calma 4 Sur 0 -- -- 82
2018-05-10 22:00:00 17.5 3 Este 9 Sudeste 0 -- -- 79
2018-05-10 21:00:00 19.2 0 Calma 9 Sur 0 -- -- 71
2018-05-10 20:00:00 20.6 5 Sudoeste 13 Sudoeste 0 -- -- 67
2018-05-10 19:00:00 21.8 7 Sudoeste 25 Sudoeste 0 -- -- 65
2018-05-10 18:00:00 20.2 17 Sudoeste 29 Sudoeste 0 -- -- 70
2018-05-10 17:00:00 20.3 16 Sudoeste 31 Sudoeste 0 -- -- 70
2018-05-10 16:00:00 20.7 12 Sudoeste 31 Sudoeste 0 -- -- 71
2018-05-10 15:00:00 20.7 17 Sudoeste 28 Oeste 0 -- -- 72
2018-05-10 14:00:00 20.6 8 Sur 22 Sudoeste 0 -- -- 70
2018-05-10 13:00:00 21.1 10 Sur 20 Sudoeste 0 -- -- 69
2018-05-10 12:00:00 21.4 8 Sur 19 Sudoeste 0 -- -- 66
2018-05-10 11:00:00 20.2 7 Sudoeste 13 Sur 0 -- -- 70
2018-05-10 10:00:00 18.6 8 Sur 15 Este 0 -- -- 74
2018-05-10 09:00:00 17.2 8 Este 14 Este 0 -- -- 82
2018-05-10 08:00:00 16.3 2 Norte 9 Este 0 -- -- 85
2018-05-10 07:00:00 16.4 4 Este 13 Sudeste 0 -- -- 84
2018-05-10 06:00:00 16.1 2 Este 14 Este 0 -- -- 85
2018-05-10 05:00:00 16 2 Sur 6 Este 0 -- -- 85
2018-05-10 04:00:00 17.2 0 Calma 21 Oeste 0 -- -- 81
2018-05-10 03:00:00 17.4 6 Sur 11 Sudeste 0 -- -- 82
2018-05-10 02:00:00 18.2 3 Nordeste 13 Este 0 -- -- 78
2018-05-10 01:00:00 18.8 6 Sudoeste 21 Sudoeste 0 -- -- 78
2018-05-10 00:00:00 20.9 3 Oeste 26 Noroeste 0 -- -- 65
2018-05-09 23:00:00 21.9 13 Noroeste 32 Noroeste 0 -- -- 60
2018-05-09 22:00:00 22.7 21 Norte 39 Noroeste 0 -- -- 56
2018-05-09 21:00:00 24 22 Noroeste 39 Noroeste 0 -- -- 53
2018-05-09 20:00:00 26.6 22 Noroeste 37 Noroeste 0 -- -- 48
2018-05-09 19:00:00 28.3 19 Noroeste 37 Noroeste 0 -- -- 42
2018-05-09 18:00:00 24.8 10 Sudeste 19 Sudoeste 0 -- -- 63
2018-05-09 17:00:00 23 17 Sudoeste 26 Sudoeste 0 -- -- 67
2018-05-09 16:00:00 22 13 Oeste 31 Sudoeste 0 -- -- 70
2018-05-09 15:00:00 22.4 19 Sudoeste 28 Sudoeste 0 -- -- 68
2018-05-09 14:00:00 22.6 10 Sudoeste 26 Sudoeste 0 -- -- 69
2018-05-09 13:00:00 23.6 8 Sur 19 Sudoeste 0 -- -- 64
2018-05-09 12:00:00 21.9 6 Sur 14 Sur 0 -- -- 73
2018-05-09 11:00:00 21.5 7 Sur 12 Sur 0 -- -- 75
2018-05-09 10:00:00 20.4 5 Sur 9 Sudoeste 0 -- -- 80
2018-05-09 09:00:00 17.9 0 Calma 4 Nordeste 0 -- -- 85
2018-05-09 08:00:00 15.1 0 Calma 5 Norte 0 -- -- 92
2018-05-09 07:00:00 15.3 0 Calma 4 Norte 0 -- -- 90
2018-05-09 06:00:00 16.4 2 Este 4 Norte 0 -- -- 86
2018-05-09 05:00:00 17.7 0 Calma 4 Sudoeste 0 -- -- 83
2018-05-09 04:00:00 17.9 0 Calma 10 Este 0 -- -- 80
2018-05-09 03:00:00 18.2 8 Este 15 Este 0 -- -- 79
2018-05-09 02:00:00 18 4 Sudeste 14 Sudeste 0 -- -- 81
2018-05-09 01:00:00 19.1 6 Sur 16 Sudeste 0 -- -- 75
2018-05-09 00:00:00 21.3 11 Norte 42 Noroeste 0 -- -- 57
2018-05-08 23:00:00 21.5 31 Norte 42 Norte 0 -- -- 53
2018-05-08 22:00:00 18.3 4 Oeste 9 Noroeste 0 -- -- 85
2018-05-08 21:00:00 18.9 2 Sudeste 8 Sur 0 -- -- 81
2018-05-08 20:00:00 19.4 5 Sur 13 Sudeste 0 -- -- 79
2018-05-08 19:00:00 19.5 6 Sur 16 Sudeste 0 -- -- 78
2018-05-08 18:00:00 21.8 11 Sur 18 Sur 0 -- -- 68
2018-05-08 17:00:00 20.8 2 Noroeste 14 Sudoeste -- -- -- 68
2018-05-08 16:00:00 21.7 9 Sur 15 Sudoeste 0 -- -- 65
2018-05-08 15:00:00 20.6 8 Sur 18 Sur 0 -- -- 72
2018-05-08 14:00:00 20.8 10 Sur 17 Sudoeste 0 -- -- 71
2018-05-08 13:00:00 19.9 9 Sur 18 Sur 0 -- -- 75
2018-05-08 12:00:00 19.8 9 Sur 16 Sur 0 -- -- 76
2018-05-08 11:00:00 19.3 9 Sur 15 Sur 0 -- -- 74
2018-05-08 10:00:00 18.6 8 Sudoeste 15 Sudeste 0 -- -- 71
2018-05-08 09:00:00 17.6 6 Sudeste 13 Sur 0 -- -- 72
2018-05-08 08:00:00 14.7 0 Calma 8 Noroeste 0 -- -- 83
2018-05-08 07:00:00 14.8 3 Norte 10 Norte 0 -- -- 82
2018-05-08 06:00:00 13.4 4 Norte 7 Norte 0 -- -- 86
2018-05-08 05:00:00 14.3 2 Noroeste 11 Nordeste 0 -- -- 82
2018-05-08 04:00:00 14.4 4 Norte 6 Norte 0 -- -- 83
2018-05-08 03:00:00 15.3 6 Norte 11 Norte 0 -- -- 80
2018-05-08 02:00:00 14.7 5 Norte 10 Norte 0 -- -- 83
2018-05-08 01:00:00 14.4 0 Calma 8 Norte 0 -- -- 83
2018-05-08 00:00:00 14.7 4 Norte 6 Nordeste 0 -- -- 83
2018-05-07 23:00:00 15.5 2 Norte 5 Nordeste 0 -- -- 82
2018-05-07 22:00:00 16.7 0 Calma 3 Nordeste 0 -- -- 77
2018-05-07 21:00:00 18.6 3 Sudoeste 10 Sudoeste 0 -- -- 71
2018-05-07 20:00:00 19.9 5 Sudoeste 15 Sur 0 -- -- 63
2018-05-07 19:00:00 20.5 9 Sur 15 Sudoeste 0 -- -- 64
2018-05-07 18:00:00 20.1 10 Sudoeste 22 Sudoeste 0 -- -- 67
2018-05-07 17:00:00 21.4 13 Sudoeste 21 Sudoeste 0 -- -- 61
2018-05-07 16:00:00 21.4 11 Sudoeste 24 Sudoeste 0 -- -- 64
2018-05-07 15:00:00 20.5 14 Sudoeste 23 Sudoeste 0 -- -- 66
2018-05-07 14:00:00 20 10 Sudoeste 19 Sudoeste 0 -- -- 65
2018-05-07 13:00:00 19.5 6 Sudoeste 10 Oeste 0.2 -- -- 73
2018-05-07 12:00:00 19.5 6 Sudoeste 15 Sudoeste 0 -- -- 70
2018-05-07 11:00:00 20.7 9 Sur 16 Sudoeste 0 -- -- 70
2018-05-07 10:00:00 18.1 3 Oeste 6 Noroeste 0 -- -- 73
2018-05-07 09:00:00 16.6 2 Este 5 Norte 0 -- -- 85
2018-05-07 08:00:00 15.6 3 Sudeste 7 Norte 0 -- -- 86
2018-05-07 07:00:00 15.4 0 Calma 7 Nordeste 0 -- -- 86
2018-05-07 06:00:00 15.6 4 Nordeste 11 Sudoeste 0 -- -- 83
2018-05-07 05:00:00 16.3 3 Sur 12 Noroeste 0 -- -- 80
2018-05-07 04:00:00 15.6 7 Norte 10 Norte 0 -- -- 85
2018-05-07 03:00:00 14.5 5 Norte 7 Norte 0 -- -- 87
2018-05-07 02:00:00 14.7 3 Norte 6 Nordeste 0 -- -- 87
2018-05-07 01:00:00 15 3 Norte 6 Norte 0 -- -- 86
2018-05-07 00:00:00 15.1 3 Nordeste 6 Nordeste 0 -- -- 88
2018-05-06 23:00:00 15.7 0 Calma 4 Nordeste 0 -- -- 86
2018-05-06 22:00:00 16.7 0 Calma 6 Sur 0 -- -- 83
2018-05-06 21:00:00 17.9 3 Sur 13 Sudeste -- -- -- 79
2018-05-06 20:00:00 19.3 8 Sur 15 Sur 0 -- -- 72
2018-05-06 19:00:00 20 9 Sur 23 Sudeste 0 -- -- 73
2018-05-06 18:00:00 20 13 Sur 24 Sudeste 0 -- -- 71
2018-05-06 17:00:00 20.2 13 Sudeste 28 Sudeste 0 -- -- 71
2018-05-06 16:00:00 20.3 15 Sur 30 Sudeste 0 -- -- 68
2018-05-06 15:00:00 20.2 18 Sur 30 Sur 0 -- -- 66
2018-05-06 14:00:00 20.6 15 Sur 29 Sudeste 0 -- -- 61
2018-05-06 13:00:00 20.3 14 Sur 26 Sudeste 0 -- -- 61
2018-05-06 12:00:00 20.2 14 Sur 25 Sudeste 0 -- -- 60
2018-05-06 11:00:00 19.8 12 Sur 21 Sudeste 0 -- -- 58
2018-05-06 10:00:00 19 6 Sudoeste 10 Sur 0 -- -- 68
2018-05-06 09:00:00 15.5 5 Norte 9 Norte 0 -- -- 84
2018-05-06 08:00:00 13 4 Norte 8 Norte 0 -- -- 92
2018-05-06 07:00:00 12.6 4 Norte 7 Norte 0 -- -- 89
2018-05-06 06:00:00 12.8 4 Norte 6 Norte 0 -- -- 89
2018-05-06 05:00:00 13 4 Nordeste 5 Norte 0 -- -- 86
2018-05-06 04:00:00 13.6 2 Norte 7 Norte 0 -- -- 83
2018-05-06 03:00:00 14 4 Norte 8 Norte 0 -- -- 86
2018-05-06 02:00:00 14.8 2 Sudeste 4 Nordeste 0 -- -- 84
2018-05-06 01:00:00 16.2 0 Calma 5 Norte 0 -- -- 80
2018-05-06 00:00:00 16.9 0 Calma 5 Nordeste 0 -- -- 75
2018-05-05 23:00:00 17.5 4 Este 9 Sudeste 0 -- -- 73
2018-05-05 22:00:00 17.9 2 Sur 6 Sudoeste 0 -- -- 72
2018-05-05 21:00:00 18.7 3 Sudeste 9 Sudoeste 0 -- -- 67
2018-05-05 20:00:00 19.7 7 Sur 14 Sur 0 -- -- 66
2018-05-05 19:00:00 20.6 10 Sudoeste 16 Sudoeste 0 -- -- 63
2018-05-05 18:00:00 20.9 11 Sur 18 Sur 0 -- -- 66
2018-05-05 17:00:00 20.5 10 Sur 19 Sur 0 -- -- 70
2018-05-05 16:00:00 20.4 14 Sur 19 Sudoeste 0 -- -- 70
2018-05-05 15:00:00 20 11 Sur 21 Sur 0 -- -- 71
2018-05-05 14:00:00 20.2 10 Sudoeste 17 Sudoeste 0 -- -- 69
2018-05-05 13:00:00 20.2 12 Sur 18 Sur -- -- -- 70
2018-05-05 12:00:00 18.6 6 Sur 16 Sur 0 -- -- 76
2018-05-05 11:00:00 18.7 11 Sur 17 Sur 0 -- -- 71
2018-05-05 10:00:00 18.8 6 Sur 10 Sur 0 -- -- 65
2018-05-05 09:00:00 15.6 5 Norte 10 Norte 0 -- -- 78
2018-05-05 08:00:00 12.4 5 Norte 8 Norte 0 -- -- 87
2018-05-05 07:00:00 11.7 6 Norte 10 Norte 0 -- -- 85
2018-05-05 06:00:00 12.2 5 Norte 8 Norte 0 -- -- 85
2018-05-05 05:00:00 12 5 Norte 8 Norte 0 -- -- 86
2018-05-05 04:00:00 12.5 4 Nordeste 12 Nordeste 0 -- -- 82
2018-05-05 03:00:00 12.7 6 Norte 12 Norte 0 -- -- 86
2018-05-05 02:00:00 12.9 3 Nordeste 8 Nordeste 0 -- -- 88
2018-05-05 01:00:00 13.2 4 Nordeste 7 Nordeste 0 -- -- 88
2018-05-05 00:00:00 13.4 3 Nordeste 6 Nordeste 0 -- -- 81
2018-05-04 23:00:00 14.3 2 Nordeste 5 Sudeste 0 -- -- 78
2018-05-04 22:00:00 16 0 Calma 11 Sudeste 0 -- -- 77
2018-05-04 21:00:00 18.4 5 Sur 10 Sudeste 0 -- -- 64
2018-05-04 20:00:00 20.6 4 Sudoeste 13 Sur 0 -- -- 58
2018-05-04 19:00:00 21.1 9 Sur 14 Sudoeste 0 -- -- 56
2018-05-04 18:00:00 21.7 9 Sudoeste 21 Sudoeste 0 -- -- 61
2018-05-04 17:00:00 20.9 6 Oeste 14 Oeste -- -- -- 58
2018-05-04 16:00:00 18.3 9 Sur 24 Sudeste 0 -- -- 67
2018-05-04 15:00:00 19.8 15 Sudeste 30 Sudeste 0 -- -- 61
2018-05-04 14:00:00 19.5 15 Sudeste 37 Sudeste 0 -- -- 63
2018-05-04 13:00:00 18.7 12 Sudeste 28 Sudeste 0 -- -- 67
2018-05-04 12:00:00 20 13 Sur 26 Sudeste 0 -- -- 67
2018-05-04 11:00:00 19.6 12 Sur 21 Sudeste 0 -- -- 68
2018-05-04 10:00:00 19.5 7 Este 16 Sudeste 0 -- -- 60
2018-05-04 09:00:00 16.7 3 Sudeste 4 Sudeste 0 -- -- 71
2018-05-04 08:00:00 14.7 2 Norte 8 Norte 0 -- -- 75
2018-05-04 07:00:00 15.3 2 Norte 9 Este 0 -- -- 71
2018-05-04 06:00:00 15.3 3 Este 10 Sudeste 0 -- -- 69
2018-05-04 05:00:00 13.8 2 Nordeste 6 Sudeste 0 -- -- 77
2018-05-04 04:00:00 14.4 2 Este 5 Noroeste 0 -- -- 74
2018-05-04 03:00:00 14.7 0 Calma 11 Norte 0 -- -- 74
2018-05-04 02:00:00 14.2 3 Nordeste 9 Sudoeste 0 -- -- 78
2018-05-04 01:00:00 13.7 3 Norte 10 Este 0 -- -- 74
2018-05-04 00:00:00 14.3 5 Este 9 Norte 0 -- -- 69
2018-05-03 23:00:00 14.4 0 Calma 6 Nordeste 0 -- -- 83
2018-05-03 22:00:00 15.9 3 Sudeste 8 Este 0 -- -- 78
2018-05-03 21:00:00 17.8 5 Sudeste 9 Sur -- -- -- 66
2018-05-03 20:00:00 19.9 4 Sudoeste 17 Sudoeste 0 -- -- 59
2018-05-03 19:00:00 20.2 10 Sudoeste 18 Sudoeste 0 -- -- 54
2018-05-03 18:00:00 19.8 11 Sudoeste 21 Oeste 0 -- -- 58
2018-05-03 17:00:00 19.6 10 Sudoeste 21 Sur 0 -- -- 59
2018-05-03 16:00:00 19.7 11 Sudoeste 19 Oeste 0 -- -- 56
2018-05-03 15:00:00 19.2 10 Sudoeste 19 Sudoeste 0 -- -- 62
2018-05-03 14:00:00 20.9 12 Sudoeste 20 Sudoeste 0 -- -- 47
2018-05-03 13:00:00 20.6 10 Sur 18 Sur -- -- -- 42
2018-05-03 12:00:00 19.6 9 Sur 17 Sur 0 -- -- 49
2018-05-03 11:00:00 19 10 Sur 16 Sur 0 -- -- 61
2018-05-03 10:00:00 19.4 5 Sudeste 10 Sudeste 0 -- -- 47
2018-05-03 09:00:00 16.1 3 Norte 11 Norte 0 -- -- 63
2018-05-03 08:00:00 13.1 6 Norte 14 Norte 0 -- -- 61
2018-05-03 07:00:00 12.1 4 Norte 16 Noroeste 0 -- -- 65
2018-05-03 06:00:00 13.4 6 Noroeste 17 Noroeste 0 -- -- 58
2018-05-03 05:00:00 12.9 4 Noroeste 15 Noroeste -- -- -- 61
2018-05-03 04:00:00 13 3 Norte 12 Norte 0 -- -- 64
2018-05-03 03:00:00 13.5 3 Norte 14 Nordeste 0 -- -- 60
2018-05-03 02:00:00 13.5 6 Norte 17 Norte 0 -- -- 62
2018-05-03 01:00:00 16 13 Norte 30 Noroeste -- -- -- 51
2018-05-03 00:00:00 16.6 15 Norte 25 Noroeste 0 -- -- 48
2018-05-02 23:00:00 14.8 10 Noroeste 14 Norte 0 -- -- 59
2018-05-02 22:00:00 14.6 5 Norte 8 Norte 0 -- -- 74
2018-05-02 21:00:00 17.6 0 Calma 12 Sudoeste 0 -- -- 69
2018-05-02 20:00:00 18.6 5 Sudoeste 18 Sudoeste 0 -- -- 67
2018-05-02 19:00:00 18.4 12 Sudoeste 25 Oeste 0 -- -- 64
2018-05-02 18:00:00 17.4 14 Sudoeste 26 Oeste 0 -- -- 68
2018-05-02 17:00:00 19.1 15 Sudoeste 27 Sudoeste -- -- -- 64
2018-05-02 16:00:00 18.8 13 Sudoeste 24 Sudoeste 0 -- -- 62
2018-05-02 15:00:00 18.5 12 Sudoeste 19 Sur 0 -- -- 62
2018-05-02 14:00:00 17.8 9 Sudoeste 18 Sudoeste 0 -- -- 63
2018-05-02 13:00:00 19.1 11 Sudoeste 18 Sudoeste -- -- -- 47
2018-05-02 12:00:00 17.8 10 Sudoeste 16 Sudoeste 0 -- -- 52
2018-05-02 11:00:00 17.1 4 Sur 13 Sudoeste 0 -- -- 57
2018-05-02 10:00:00 16.8 2 Este 6 Oeste 0 -- -- 52
2018-05-02 09:00:00 11.7 3 Norte 8 Nordeste 0 -- -- 75
2018-05-02 08:00:00 8.5 5 Nordeste 9 Norte 0 -- -- 79
2018-05-02 07:00:00 7.6 2 Nordeste 9 Norte 0 -- -- 81
2018-05-02 06:00:00 8.7 6 Norte 12 Norte 0 -- -- 75
2018-05-02 05:00:00 9 5 Norte 11 Norte 0 -- -- 74
2018-05-02 04:00:00 9.3 6 Nordeste 13 Norte 0 -- -- 73
2018-05-02 03:00:00 9.2 6 Nordeste 11 Nordeste 0 -- -- 76
2018-05-02 02:00:00 9.2 4 Nordeste 12 Norte 0 -- -- 78
2018-05-02 01:00:00 9.6 6 Norte 11 Nordeste 0 -- -- 76
2018-05-02 00:00:00 9.4 4 Norte 8 Nordeste 0 -- -- 79
2018-05-01 23:00:00 10.2 3 Nordeste 10 Norte 0 -- -- 76
2018-05-01 22:00:00 12 3 Nordeste 13 Noroeste 0 -- -- 66
2018-05-01 21:00:00 14.5 6 Noroeste 21 Oeste 0 -- -- 55
2018-05-01 20:00:00 15.2 11 Oeste 26 Oeste 0 -- -- 65
2018-05-01 19:00:00 16.5 8 Oeste 15 Noroeste 0 -- -- 57
2018-05-01 18:00:00 12.2 12 Noroeste 41 Noroeste 0.4 -- -- 76
2018-05-01 17:00:00 15.4 8 Oeste 19 Norte -- -- -- 57
2018-05-01 16:00:00 12.1 20 Norte 54 Norte 2.4 -- -- 74
2018-05-01 15:00:00 17 11 Sudoeste 40 Oeste 0 -- -- 54
2018-05-01 14:00:00 15.7 21 Oeste 41 Oeste 0 -- -- 62
2018-05-01 13:00:00 18.7 8 Sur 19 Sur 0 -- -- 48
2018-05-01 12:00:00 17.7 9 Sur 15 Sudeste 0 -- -- 52
2018-05-01 11:00:00 17.1 10 Sur 16 Sudeste 0 -- -- 51
2018-05-01 10:00:00 16.6 7 Noroeste 18 Noroeste 0 -- -- 49
2018-05-01 09:00:00 14.1 5 Nordeste 12 Norte 0 -- -- 59
2018-05-01 08:00:00 10.5 5 Nordeste 12 Norte 0 -- -- 69
2018-05-01 07:00:00 10.5 4 Norte 10 Norte 0 -- -- 68
2018-05-01 06:00:00 10 2 Nordeste 9 Nordeste 0 -- -- 69
2018-05-01 05:00:00 10.4 2 Nordeste 13 Nordeste 0 -- -- 68
2018-05-01 04:00:00 9.9 4 Nordeste 9 Norte 0 -- -- 69
2018-05-01 03:00:00 11.5 5 Norte 14 Norte 0 -- -- 63
2018-05-01 02:00:00 13.8 10 Norte 28 Noroeste 0 -- -- 54
2018-05-01 01:00:00 14.4 17 Noroeste 30 Noroeste -- -- -- 53
2018-05-01 00:00:00 14.7 19 Noroeste 31 Noroeste 0 -- -- 52
2018-04-30 23:00:00 15.1 13 Noroeste 22 Noroeste 0 -- -- 50
2018-04-30 22:00:00 16.1 16 Noroeste 27 Noroeste 0 -- -- 47
2018-04-30 21:00:00 17.2 16 Noroeste 30 Noroeste 0 -- -- 42
2018-04-30 20:00:00 19.4 19 Noroeste 32 Noroeste 0 -- -- 36
2018-04-30 19:00:00 19 18 Noroeste 30 Noroeste 0 -- -- 36
2018-04-30 18:00:00 19.6 12 Noroeste 35 Oeste 0 -- -- 39
2018-04-30 17:00:00 20.9 19 Noroeste 41 Sudoeste -- -- -- 35
2018-04-30 16:00:00 17.7 25 Sudoeste 43 Sudoeste 0 -- -- 54
2018-04-30 15:00:00 20 18 Oeste 33 Sudoeste 0 -- -- 34
2018-04-30 14:00:00 18 21 Sudoeste 41 Sudoeste 0 -- -- 47
2018-04-30 13:00:00 17.1 20 Sudoeste 36 Sudoeste 0 -- -- 48
2018-04-30 12:00:00 17.2 19 Sudoeste 33 Sudoeste 0 -- -- 49
2018-04-30 11:00:00 16.6 12 Oeste 22 Oeste 0 -- -- 45
2018-04-30 10:00:00 14.9 13 Noroeste 23 Noroeste 0 -- -- 54
2018-04-30 09:00:00 12.2 5 Norte 13 Norte 0 -- -- 68
2018-04-30 08:00:00 11 9 Norte 19 Noroeste 0 -- -- 69
2018-04-30 07:00:00 12.1 12 Noroeste 29 Noroeste 0 -- -- 64
2018-04-30 06:00:00 10.8 11 Noroeste 21 Noroeste 0 -- -- 71
2018-04-30 05:00:00 11.4 10 Noroeste 18 Noroeste 0 -- -- 72
2018-04-30 04:00:00 12 10 Norte 20 Norte 0 -- -- 69
2018-04-30 03:00:00 12.5 14 Noroeste 21 Noroeste 0 -- -- 67
2018-04-30 02:00:00 12.2 9 Norte 17 Noroeste 0 -- -- 67
2018-04-30 01:00:00 13.5 11 Noroeste 23 Noroeste 0 -- -- 61
2018-04-30 00:00:00 13.9 11 Noroeste 19 Noroeste 0 -- -- 60
2018-04-29 23:00:00 14.8 12 Noroeste 19 Noroeste 0 -- -- 55
2018-04-29 22:00:00 15.8 10 Noroeste 22 Noroeste 0 -- -- 47
2018-04-29 21:00:00 17.4 15 Noroeste 30 Noroeste -- -- -- 40
2018-04-29 20:00:00 19 20 Noroeste 39 Sudoeste 0 -- -- 36
2018-04-29 19:00:00 17.3 22 Sudoeste 42 Sudoeste 0 -- -- 58
2018-04-29 18:00:00 17.7 23 Oeste 48 Sudoeste 0 -- -- 64
2018-04-29 17:00:00 17.4 28 Sudoeste 45 Sudoeste 0 -- -- 59
2018-04-29 16:00:00 17.3 19 Sudoeste 36 Sudoeste 0 -- -- 62
2018-04-29 15:00:00 16.3 23 Sudoeste 36 Sudoeste 0 -- -- 60
2018-04-29 14:00:00 16.6 27 Sudoeste 39 Sudoeste 0 -- -- 58
2018-04-29 13:00:00 18.6 21 Noroeste 38 Noroeste 0 -- -- 40
2018-04-29 12:00:00 17.8 23 Noroeste 44 Noroeste 0 -- -- 44
2018-04-29 11:00:00 15.5 20 Noroeste 39 Norte 0 -- -- 49
2018-04-29 10:00:00 15.2 19 Noroeste 37 Norte 0 -- -- 52
2018-04-29 09:00:00 13.4 15 Noroeste 35 Norte 0 -- -- 61
2018-04-29 08:00:00 12.9 19 Norte 28 Norte 0 -- -- 62
2018-04-29 07:00:00 12.4 16 Noroeste 26 Noroeste 0 -- -- 63
2018-04-29 06:00:00 12.1 11 Norte 20 Noroeste 0 -- -- 67
2018-04-29 05:00:00 12 10 Noroeste 17 Noroeste 0 -- -- 72
2018-04-29 04:00:00 13 5 Norte 14 Oeste 0 -- -- 75
2018-04-29 03:00:00 14.1 6 Noroeste 24 Oeste 0 -- -- 73
2018-04-29 02:00:00 14.5 12 Oeste 32 Oeste 0 -- -- 70
2018-04-29 01:00:00 14.6 11 Oeste 29 Oeste 0 -- -- 65
2018-04-29 00:00:00 15.1 14 Oeste 37 Sudoeste 0 -- -- 62
2018-04-28 23:00:00 15.3 7 Norte 28 Oeste 0 -- -- 61
2018-04-28 22:00:00 16.1 16 Oeste 44 Oeste 0 -- -- 61
2018-04-28 21:00:00 16.8 9 Noroeste 34 Sudoeste 0 -- -- 58
2018-04-28 20:00:00 18.2 16 Oeste 46 Sudoeste 0 -- -- 53
2018-04-28 19:00:00 18.9 23 Sudoeste 44 Sudoeste 0 -- -- 55
2018-04-28 18:00:00 20.5 13 Oeste 36 Oeste 0 -- -- 53
2018-04-28 17:00:00 19.9 21 Sudoeste 32 Sudoeste 0 -- -- 56
2018-04-28 16:00:00 19 21 Sudoeste 44 Sudoeste 0 -- -- 63
2018-04-28 15:00:00 19.2 23 Sudoeste 36 Sudoeste 0 -- -- 65
2018-04-28 14:00:00 18.7 23 Sudoeste 38 Sudoeste 0 -- -- 68
2018-04-28 13:00:00 18.6 19 Sudoeste 31 Sudoeste 0 -- -- 71
2018-04-28 12:00:00 18.6 15 Sudoeste 25 Oeste 0 -- -- 77
2018-04-28 11:00:00 17.7 17 Sudoeste 24 Sudoeste 0 -- -- 80
2018-04-28 10:00:00 18.2 6 Sudoeste 10 Sudoeste 0 -- -- 75
2018-04-28 09:00:00 15 3 Nordeste 7 Norte 0 -- -- 93
2018-04-28 08:00:00 12.1 0 Calma 5 Norte 0 -- -- 96
2018-04-28 07:00:00 12.3 0 Calma 4 Norte 0 -- -- 95
2018-04-28 06:00:00 12.9 0 Calma 5 Norte 0 -- -- 95
2018-04-28 05:00:00 13.6 2 Este 8 Sudeste 0 -- -- 94
2018-04-28 04:00:00 13.7 0 Calma 4 Norte 0 -- -- 94
2018-04-28 03:00:00 14.4 2 Norte 4 Nordeste 0 -- -- 93
2018-04-28 02:00:00 14.9 0 Calma 4 Norte 0 -- -- 92
2018-04-28 01:00:00 15.4 3 Norte 5 Norte 0 -- -- 91
2018-04-28 00:00:00 15.9 3 Norte 5 Este 0 -- -- 89